sensor_id;sensor_type;location;lat;lon;timestamp;P1;durP1;ratioP1;P2;durP2;ratioP2
49440;SDS011;35317;51.978;6.296;2023-06-14T00:03:45;3.65;;;2.13;;
49440;SDS011;35317;51.978;6.296;2023-06-14T00:08:47;6.88;;;2.00;;
49440;SDS011;35317;51.978;6.296;2023-06-14T00:13:48;3.45;;;1.95;;
49440;SDS011;35317;51.978;6.296;2023-06-14T00:18:49;2.83;;;1.95;;
49440;SDS011;35317;51.978;6.296;2023-06-14T00:23:51;4.88;;;2.05;;
49440;SDS011;35317;51.978;6.296;2023-06-14T00:28:53;5.28;;;2.15;;
49440;SDS011;35317;51.978;6.296;2023-06-14T00:33:54;3.08;;;1.98;;
49440;SDS011;35317;51.978;6.296;2023-06-14T00:38:55;3.67;;;2.20;;
49440;SDS011;35317;51.978;6.296;2023-06-14T00:43:56;5.05;;;1.90;;
49440;SDS011;35317;51.978;6.296;2023-06-14T00:48:57;6.90;;;2.00;;
49440;SDS011;35317;51.978;6.296;2023-06-14T00:54:00;3.55;;;1.65;;
49440;SDS011;35317;51.978;6.296;2023-06-14T00:59:01;3.28;;;1.80;;
49440;SDS011;35317;51.978;6.296;2023-06-14T01:04:03;6.25;;;2.05;;
49440;SDS011;35317;51.978;6.296;2023-06-14T01:14:30;4.50;;;1.70;;
49440;SDS011;35317;51.978;6.296;2023-06-14T01:19:33;4.63;;;1.63;;
49440;SDS011;35317;51.978;6.296;2023-06-14T01:24:34;2.40;;;1.70;;
49440;SDS011;35317;51.978;6.296;2023-06-14T01:29:35;4.38;;;2.28;;
49440;SDS011;35317;51.978;6.296;2023-06-14T01:34:37;5.68;;;2.00;;
49440;SDS011;35317;51.978;6.296;2023-06-14T01:39:38;3.33;;;1.88;;
49440;SDS011;35317;51.978;6.296;2023-06-14T01:44:39;2.20;;;1.50;;
49440;SDS011;35317;51.978;6.296;2023-06-14T01:49:42;4.67;;;1.60;;
49440;SDS011;35317;51.978;6.296;2023-06-14T01:54:43;3.38;;;1.80;;
49440;SDS011;35317;51.978;6.296;2023-06-14T01:59:44;4.47;;;1.80;;
49440;SDS011;35317;51.978;6.296;2023-06-14T02:04:48;4.25;;;1.60;;
49440;SDS011;35317;51.978;6.296;2023-06-14T02:09:49;3.38;;;1.90;;
49440;SDS011;35317;51.978;6.296;2023-06-14T02:14:50;4.13;;;1.73;;
49440;SDS011;35317;51.978;6.296;2023-06-14T02:19:50;4.03;;;1.63;;
49440;SDS011;35317;51.978;6.296;2023-06-14T02:24:52;4.22;;;1.70;;
49440;SDS011;35317;51.978;6.296;2023-06-14T02:29:53;4.53;;;1.70;;
49440;SDS011;35317;51.978;6.296;2023-06-14T02:34:54;2.50;;;1.40;;
49440;SDS011;35317;51.978;6.296;2023-06-14T02:39:55;2.50;;;1.90;;
49440;SDS011;35317;51.978;6.296;2023-06-14T02:44:56;2.80;;;1.90;;
49440;SDS011;35317;51.978;6.296;2023-06-14T02:49:57;4.03;;;2.17;;
49440;SDS011;35317;51.978;6.296;2023-06-14T02:54:58;2.80;;;1.80;;
49440;SDS011;35317;51.978;6.296;2023-06-14T02:59:59;3.25;;;1.88;;
49440;SDS011;35317;51.978;6.296;2023-06-14T03:05:00;5.88;;;2.17;;
49440;SDS011;35317;51.978;6.296;2023-06-14T03:10:02;4.15;;;1.95;;
49440;SDS011;35317;51.978;6.296;2023-06-14T03:15:04;6.97;;;2.08;;
49440;SDS011;35317;51.978;6.296;2023-06-14T03:20:05;5.72;;;2.15;;
49440;SDS011;35317;51.978;6.296;2023-06-14T03:25:08;6.05;;;2.00;;
49440;SDS011;35317;51.978;6.296;2023-06-14T03:30:09;3.33;;;1.75;;
49440;SDS011;35317;51.978;6.296;2023-06-14T03:35:10;3.47;;;2.10;;
49440;SDS011;35317;51.978;6.296;2023-06-14T03:40:17;2.65;;;1.65;;
49440;SDS011;35317;51.978;6.296;2023-06-14T03:45:20;3.63;;;1.87;;
49440;SDS011;35317;51.978;6.296;2023-06-14T03:50:21;5.47;;;1.90;;
49440;SDS011;35317;51.978;6.296;2023-06-14T03:55:22;4.10;;;2.05;;
49440;SDS011;35317;51.978;6.296;2023-06-14T04:00:25;2.72;;;1.75;;
49440;SDS011;35317;51.978;6.296;2023-06-14T04:05:26;3.88;;;1.85;;
49440;SDS011;35317;51.978;6.296;2023-06-14T04:10:27;5.47;;;2.13;;
49440;SDS011;35317;51.978;6.296;2023-06-14T04:15:28;7.10;;;2.10;;
49440;SDS011;35317;51.978;6.296;2023-06-14T04:20:29;4.07;;;1.80;;
49440;SDS011;35317;51.978;6.296;2023-06-14T04:25:30;2.22;;;1.50;;
49440;SDS011;35317;51.978;6.296;2023-06-14T04:30:32;3.58;;;1.65;;
49440;SDS011;35317;51.978;6.296;2023-06-14T04:35:33;3.08;;;1.90;;
49440;SDS011;35317;51.978;6.296;2023-06-14T04:40:36;2.30;;;1.70;;
49440;SDS011;35317;51.978;6.296;2023-06-14T04:45:42;2.45;;;1.92;;
49440;SDS011;35317;51.978;6.296;2023-06-14T04:50:46;5.40;;;1.58;;
49440;SDS011;35317;51.978;6.296;2023-06-14T04:55:47;3.33;;;1.70;;
49440;SDS011;35317;51.978;6.296;2023-06-14T05:00:48;5.30;;;2.00;;
49440;SDS011;35317;51.978;6.296;2023-06-14T05:05:49;3.70;;;2.00;;
49440;SDS011;35317;51.978;6.296;2023-06-14T05:10:50;7.85;;;1.98;;
49440;SDS011;35317;51.978;6.296;2023-06-14T05:15:52;4.15;;;1.90;;
49440;SDS011;35317;51.978;6.296;2023-06-14T05:20:53;2.58;;;1.73;;
49440;SDS011;35317;51.978;6.296;2023-06-14T05:25:54;4.65;;;1.98;;
49440;SDS011;35317;51.978;6.296;2023-06-14T05:30:54;4.75;;;1.85;;
49440;SDS011;35317;51.978;6.296;2023-06-14T05:35:55;3.67;;;2.40;;
49440;SDS011;35317;51.978;6.296;2023-06-14T05:40:56;3.08;;;1.95;;
49440;SDS011;35317;51.978;6.296;2023-06-14T05:45:57;4.93;;;2.30;;
49440;SDS011;35317;51.978;6.296;2023-06-14T05:50:58;7.28;;;2.22;;
49440;SDS011;35317;51.978;6.296;2023-06-14T05:56:00;4.32;;;2.30;;
49440;SDS011;35317;51.978;6.296;2023-06-14T06:01:01;5.13;;;2.00;;
49440;SDS011;35317;51.978;6.296;2023-06-14T06:06:02;4.10;;;1.60;;
49440;SDS011;35317;51.978;6.296;2023-06-14T06:11:03;5.57;;;2.00;;
49440;SDS011;35317;51.978;6.296;2023-06-14T06:16:04;4.97;;;1.88;;
49440;SDS011;35317;51.978;6.296;2023-06-14T06:21:05;4.47;;;1.73;;
49440;SDS011;35317;51.978;6.296;2023-06-14T06:26:06;2.42;;;1.70;;
49440;SDS011;35317;51.978;6.296;2023-06-14T06:31:07;1.95;;;1.67;;
49440;SDS011;35317;51.978;6.296;2023-06-14T06:36:08;4.53;;;1.55;;
49440;SDS011;35317;51.978;6.296;2023-06-14T06:41:08;2.92;;;1.70;;
49440;SDS011;35317;51.978;6.296;2023-06-14T06:46:09;2.70;;;1.48;;
49440;SDS011;35317;51.978;6.296;2023-06-14T06:51:10;6.72;;;1.70;;
49440;SDS011;35317;51.978;6.296;2023-06-14T06:56:13;1.88;;;1.30;;
49440;SDS011;35317;51.978;6.296;2023-06-14T07:01:13;2.65;;;1.33;;
49440;SDS011;35317;51.978;6.296;2023-06-14T07:06:14;3.10;;;1.02;;
49440;SDS011;35317;51.978;6.296;2023-06-14T07:11:18;2.42;;;1.02;;
49440;SDS011;35317;51.978;6.296;2023-06-14T07:16:20;4.00;;;1.05;;
49440;SDS011;35317;51.978;6.296;2023-06-14T07:21:21;1.85;;;1.17;;
49440;SDS011;35317;51.978;6.296;2023-06-14T07:26:22;2.15;;;1.10;;
49440;SDS011;35317;51.978;6.296;2023-06-14T07:31:23;2.95;;;1.08;;
49440;SDS011;35317;51.978;6.296;2023-06-14T07:36:24;3.28;;;1.40;;
49440;SDS011;35317;51.978;6.296;2023-06-14T07:41:25;4.25;;;1.48;;
49440;SDS011;35317;51.978;6.296;2023-06-14T07:46:25;2.45;;;1.40;;
49440;SDS011;35317;51.978;6.296;2023-06-14T07:51:26;2.92;;;1.40;;
49440;SDS011;35317;51.978;6.296;2023-06-14T07:56:27;1.55;;;1.15;;
49440;SDS011;35317;51.978;6.296;2023-06-14T08:01:28;2.38;;;1.30;;
49440;SDS011;35317;51.978;6.296;2023-06-14T08:06:29;1.60;;;1.20;;
49440;SDS011;35317;51.978;6.296;2023-06-14T08:11:30;1.42;;;1.10;;
49440;SDS011;35317;51.978;6.296;2023-06-14T08:16:31;1.52;;;1.30;;
49440;SDS011;35317;51.978;6.296;2023-06-14T08:21:32;2.42;;;1.27;;
49440;SDS011;35317;51.978;6.296;2023-06-14T08:26:33;2.42;;;1.33;;
49440;SDS011;35317;51.978;6.296;2023-06-14T08:31:34;1.50;;;1.10;;
49440;SDS011;35317;51.978;6.296;2023-06-14T08:36:35;1.20;;;1.00;;
49440;SDS011;35317;51.978;6.296;2023-06-14T08:41:36;1.20;;;1.10;;
49440;SDS011;35317;51.978;6.296;2023-06-14T08:46:37;1.48;;;1.10;;
49440;SDS011;35317;51.978;6.296;2023-06-14T08:51:39;1.23;;;1.00;;
49440;SDS011;35317;51.978;6.296;2023-06-14T08:56:40;4.47;;;1.00;;
49440;SDS011;35317;51.978;6.296;2023-06-14T09:01:41;4.97;;;1.17;;
49440;SDS011;35317;51.978;6.296;2023-06-14T09:06:42;3.30;;;1.00;;
49440;SDS011;35317;51.978;6.296;2023-06-14T09:11:43;1.58;;;1.05;;
49440;SDS011;35317;51.978;6.296;2023-06-14T09:16:44;0.93;;;0.93;;
49440;SDS011;35317;51.978;6.296;2023-06-14T09:21:47;2.47;;;0.90;;
49440;SDS011;35317;51.978;6.296;2023-06-14T09:26:48;2.38;;;0.90;;
49440;SDS011;35317;51.978;6.296;2023-06-14T09:31:50;3.30;;;1.00;;
49440;SDS011;35317;51.978;6.296;2023-06-14T09:36:51;1.10;;;0.90;;
49440;SDS011;35317;51.978;6.296;2023-06-14T09:41:52;1.25;;;0.93;;
49440;SDS011;35317;51.978;6.296;2023-06-14T09:46:53;1.13;;;0.80;;
49440;SDS011;35317;51.978;6.296;2023-06-14T09:51:55;1.03;;;0.73;;
49440;SDS011;35317;51.978;6.296;2023-06-14T09:56:58;1.33;;;0.88;;
49440;SDS011;35317;51.978;6.296;2023-06-14T10:02:03;2.47;;;0.90;;
49440;SDS011;35317;51.978;6.296;2023-06-14T10:07:19;1.88;;;0.95;;
49440;SDS011;35317;51.978;6.296;2023-06-14T10:12:20;3.20;;;1.43;;
49440;SDS011;35317;51.978;6.296;2023-06-14T10:22:40;4.60;;;0.95;;
49440;SDS011;35317;51.978;6.296;2023-06-14T10:33:16;2.38;;;0.93;;
49440;SDS011;35317;51.978;6.296;2023-06-14T10:38:17;2.03;;;0.82;;
49440;SDS011;35317;51.978;6.296;2023-06-14T10:43:32;6.38;;;1.10;;
49440;SDS011;35317;51.978;6.296;2023-06-14T10:48:33;1.83;;;1.13;;
49440;SDS011;35317;51.978;6.296;2023-06-14T10:53:40;2.85;;;1.00;;
49440;SDS011;35317;51.978;6.296;2023-06-14T10:58:42;1.10;;;0.80;;
49440;SDS011;35317;51.978;6.296;2023-06-14T11:03:46;3.75;;;1.10;;
49440;SDS011;35317;51.978;6.296;2023-06-14T11:09:01;4.95;;;1.30;;
49440;SDS011;35317;51.978;6.296;2023-06-14T11:14:19;1.00;;;0.90;;
49440;SDS011;35317;51.978;6.296;2023-06-14T11:19:21;1.48;;;1.10;;
49440;SDS011;35317;51.978;6.296;2023-06-14T11:24:22;2.10;;;0.90;;
49440;SDS011;35317;51.978;6.296;2023-06-14T11:29:22;1.27;;;0.95;;
49440;SDS011;35317;51.978;6.296;2023-06-14T11:34:24;1.63;;;0.90;;
49440;SDS011;35317;51.978;6.296;2023-06-14T11:39:25;1.30;;;1.00;;
49440;SDS011;35317;51.978;6.296;2023-06-14T11:44:27;1.55;;;0.80;;
49440;SDS011;35317;51.978;6.296;2023-06-14T11:49:28;1.52;;;0.75;;
49440;SDS011;35317;51.978;6.296;2023-06-14T11:54:28;1.52;;;0.90;;
49440;SDS011;35317;51.978;6.296;2023-06-14T11:59:29;1.20;;;0.68;;
49440;SDS011;35317;51.978;6.296;2023-06-14T12:04:31;1.25;;;0.80;;
49440;SDS011;35317;51.978;6.296;2023-06-14T12:09:32;1.30;;;0.73;;
49440;SDS011;35317;51.978;6.296;2023-06-14T12:14:33;3.38;;;0.85;;
49440;SDS011;35317;51.978;6.296;2023-06-14T12:19:41;0.98;;;0.70;;
49440;SDS011;35317;51.978;6.296;2023-06-14T12:24:44;1.52;;;0.88;;
49440;SDS011;35317;51.978;6.296;2023-06-14T12:29:46;2.13;;;0.77;;
49440;SDS011;35317;51.978;6.296;2023-06-14T12:34:46;1.30;;;0.80;;
49440;SDS011;35317;51.978;6.296;2023-06-14T12:39:47;1.10;;;0.80;;
49440;SDS011;35317;51.978;6.296;2023-06-14T12:44:48;3.08;;;1.15;;
49440;SDS011;35317;51.978;6.296;2023-06-14T12:49:49;1.48;;;0.70;;
49440;SDS011;35317;51.978;6.296;2023-06-14T12:54:50;1.05;;;0.52;;
49440;SDS011;35317;51.978;6.296;2023-06-14T12:59:51;2.03;;;0.60;;
49440;SDS011;35317;51.978;6.296;2023-06-14T13:04:52;0.75;;;0.75;;
49440;SDS011;35317;51.978;6.296;2023-06-14T13:09:53;1.75;;;0.70;;
49440;SDS011;35317;51.978;6.296;2023-06-14T13:14:54;1.02;;;0.70;;
49440;SDS011;35317;51.978;6.296;2023-06-14T13:19:55;0.47;;;0.47;;
49440;SDS011;35317;51.978;6.296;2023-06-14T13:24:56;0.65;;;0.65;;
49440;SDS011;35317;51.978;6.296;2023-06-14T13:29:57;0.65;;;0.60;;
49440;SDS011;35317;51.978;6.296;2023-06-14T13:34:57;0.65;;;0.65;;
49440;SDS011;35317;51.978;6.296;2023-06-14T13:39:58;1.25;;;0.80;;
49440;SDS011;35317;51.978;6.296;2023-06-14T13:44:59;1.05;;;0.70;;
49440;SDS011;35317;51.978;6.296;2023-06-14T13:50:00;3.17;;;0.70;;
49440;SDS011;35317;51.978;6.296;2023-06-14T13:55:01;1.45;;;0.73;;
49440;SDS011;35317;51.978;6.296;2023-06-14T14:00:02;3.00;;;0.70;;
49440;SDS011;35317;51.978;6.296;2023-06-14T14:05:04;1.75;;;0.75;;
49440;SDS011;35317;51.978;6.296;2023-06-14T14:10:05;0.68;;;0.68;;
49440;SDS011;35317;51.978;6.296;2023-06-14T14:15:07;0.97;;;0.60;;
49440;SDS011;35317;51.978;6.296;2023-06-14T14:20:13;1.10;;;1.00;;
49440;SDS011;35317;51.978;6.296;2023-06-14T14:25:15;1.42;;;1.00;;
49440;SDS011;35317;51.978;6.296;2023-06-14T14:30:16;3.55;;;0.75;;
49440;SDS011;35317;51.978;6.296;2023-06-14T14:35:19;0.90;;;0.70;;
49440;SDS011;35317;51.978;6.296;2023-06-14T14:40:20;0.93;;;0.70;;
49440;SDS011;35317;51.978;6.296;2023-06-14T14:45:21;0.98;;;0.90;;
49440;SDS011;35317;51.978;6.296;2023-06-14T14:50:21;2.50;;;0.80;;
49440;SDS011;35317;51.978;6.296;2023-06-14T14:55:23;1.20;;;0.80;;
49440;SDS011;35317;51.978;6.296;2023-06-14T15:00:24;1.80;;;0.93;;
49440;SDS011;35317;51.978;6.296;2023-06-14T15:05:25;0.70;;;0.70;;
49440;SDS011;35317;51.978;6.296;2023-06-14T15:10:26;1.83;;;0.70;;
49440;SDS011;35317;51.978;6.296;2023-06-14T15:15:26;1.35;;;0.90;;
49440;SDS011;35317;51.978;6.296;2023-06-14T15:20:27;0.95;;;0.75;;
49440;SDS011;35317;51.978;6.296;2023-06-14T15:25:28;2.00;;;0.93;;
49440;SDS011;35317;51.978;6.296;2023-06-14T15:30:30;2.28;;;0.70;;
49440;SDS011;35317;51.978;6.296;2023-06-14T15:35:31;1.52;;;0.80;;
49440;SDS011;35317;51.978;6.296;2023-06-14T15:40:31;1.27;;;0.90;;
49440;SDS011;35317;51.978;6.296;2023-06-14T15:45:32;2.38;;;1.02;;
49440;SDS011;35317;51.978;6.296;2023-06-14T15:50:33;1.17;;;0.93;;
49440;SDS011;35317;51.978;6.296;2023-06-14T15:55:34;2.72;;;0.82;;
49440;SDS011;35317;51.978;6.296;2023-06-14T16:00:35;0.93;;;0.85;;
49440;SDS011;35317;51.978;6.296;2023-06-14T16:05:36;0.95;;;0.82;;
49440;SDS011;35317;51.978;6.296;2023-06-14T16:10:53;1.55;;;0.93;;
49440;SDS011;35317;51.978;6.296;2023-06-14T16:15:54;1.77;;;0.90;;
49440;SDS011;35317;51.978;6.296;2023-06-14T16:20:55;1.20;;;0.93;;
49440;SDS011;35317;51.978;6.296;2023-06-14T16:25:56;0.90;;;0.90;;
49440;SDS011;35317;51.978;6.296;2023-06-14T16:30:57;1.73;;;0.80;;
49440;SDS011;35317;51.978;6.296;2023-06-14T16:35:58;1.30;;;0.88;;
49440;SDS011;35317;51.978;6.296;2023-06-14T16:40:59;1.20;;;0.90;;
49440;SDS011;35317;51.978;6.296;2023-06-14T16:46:00;3.22;;;1.00;;
49440;SDS011;35317;51.978;6.296;2023-06-14T16:51:00;2.83;;;0.93;;
49440;SDS011;35317;51.978;6.296;2023-06-14T16:56:01;0.88;;;0.85;;
49440;SDS011;35317;51.978;6.296;2023-06-14T17:01:03;0.82;;;0.73;;
49440;SDS011;35317;51.978;6.296;2023-06-14T17:06:03;1.30;;;1.10;;
49440;SDS011;35317;51.978;6.296;2023-06-14T17:11:06;4.60;;;1.30;;
49440;SDS011;35317;51.978;6.296;2023-06-14T17:16:07;5.03;;;1.00;;
49440;SDS011;35317;51.978;6.296;2023-06-14T17:21:08;1.65;;;0.90;;
49440;SDS011;35317;51.978;6.296;2023-06-14T17:26:09;1.83;;;0.85;;
49440;SDS011;35317;51.978;6.296;2023-06-14T17:31:10;1.77;;;1.30;;
49440;SDS011;35317;51.978;6.296;2023-06-14T17:36:11;2.30;;;1.17;;
49440;SDS011;35317;51.978;6.296;2023-06-14T17:41:12;2.42;;;1.33;;
49440;SDS011;35317;51.978;6.296;2023-06-14T17:46:15;3.65;;;0.90;;
49440;SDS011;35317;51.978;6.296;2023-06-14T17:51:16;0.60;;;0.60;;
49440;SDS011;35317;51.978;6.296;2023-06-14T17:56:19;2.70;;;1.27;;
49440;SDS011;35317;51.978;6.296;2023-06-14T18:01:20;1.73;;;0.82;;
49440;SDS011;35317;51.978;6.296;2023-06-14T18:06:21;1.80;;;1.27;;
49440;SDS011;35317;51.978;6.296;2023-06-14T18:11:22;1.75;;;1.10;;
49440;SDS011;35317;51.978;6.296;2023-06-14T18:16:24;1.98;;;1.00;;
49440;SDS011;35317;51.978;6.296;2023-06-14T18:21:26;1.70;;;1.10;;
49440;SDS011;35317;51.978;6.296;2023-06-14T18:26:27;2.53;;;0.93;;
49440;SDS011;35317;51.978;6.296;2023-06-14T18:31:27;1.25;;;1.08;;
49440;SDS011;35317;51.978;6.296;2023-06-14T18:36:28;1.60;;;1.02;;
49440;SDS011;35317;51.978;6.296;2023-06-14T18:41:30;2.28;;;0.90;;
49440;SDS011;35317;51.978;6.296;2023-06-14T18:46:31;2.45;;;1.00;;
49440;SDS011;35317;51.978;6.296;2023-06-14T18:51:32;1.00;;;0.90;;
49440;SDS011;35317;51.978;6.296;2023-06-14T18:56:34;1.48;;;0.98;;
49440;SDS011;35317;51.978;6.296;2023-06-14T19:01:36;2.63;;;1.20;;
49440;SDS011;35317;51.978;6.296;2023-06-14T19:06:36;2.25;;;1.08;;
49440;SDS011;35317;51.978;6.296;2023-06-14T19:11:38;1.58;;;1.05;;
49440;SDS011;35317;51.978;6.296;2023-06-14T19:16:40;1.10;;;1.00;;
49440;SDS011;35317;51.978;6.296;2023-06-14T19:21:41;1.17;;;1.08;;
49440;SDS011;35317;51.978;6.296;2023-06-14T19:26:43;2.13;;;0.90;;
49440;SDS011;35317;51.978;6.296;2023-06-14T19:31:44;1.13;;;0.95;;
49440;SDS011;35317;51.978;6.296;2023-06-14T19:36:45;1.15;;;0.90;;
49440;SDS011;35317;51.978;6.296;2023-06-14T19:41:45;1.45;;;1.10;;
49440;SDS011;35317;51.978;6.296;2023-06-14T19:46:46;2.83;;;0.90;;
49440;SDS011;35317;51.978;6.296;2023-06-14T19:51:47;2.40;;;1.38;;
49440;SDS011;35317;51.978;6.296;2023-06-14T19:56:48;5.10;;;0.95;;
49440;SDS011;35317;51.978;6.296;2023-06-14T20:01:49;1.27;;;1.05;;
49440;SDS011;35317;51.978;6.296;2023-06-14T20:06:49;2.10;;;1.15;;
49440;SDS011;35317;51.978;6.296;2023-06-14T20:11:58;1.50;;;1.10;;
49440;SDS011;35317;51.978;6.296;2023-06-14T20:16:59;2.38;;;1.42;;
49440;SDS011;35317;51.978;6.296;2023-06-14T20:22:01;3.17;;;1.17;;
49440;SDS011;35317;51.978;6.296;2023-06-14T20:27:02;1.48;;;1.17;;
49440;SDS011;35317;51.978;6.296;2023-06-14T20:32:03;1.20;;;1.10;;
49440;SDS011;35317;51.978;6.296;2023-06-14T20:37:05;2.70;;;1.70;;
49440;SDS011;35317;51.978;6.296;2023-06-14T20:42:05;2.65;;;1.40;;
49440;SDS011;35317;51.978;6.296;2023-06-14T20:47:09;2.58;;;1.58;;
49440;SDS011;35317;51.978;6.296;2023-06-14T20:52:12;2.53;;;1.43;;
49440;SDS011;35317;51.978;6.296;2023-06-14T20:57:13;1.80;;;1.30;;
49440;SDS011;35317;51.978;6.296;2023-06-14T21:02:17;3.55;;;1.70;;
49440;SDS011;35317;51.978;6.296;2023-06-14T21:07:18;3.00;;;1.50;;
49440;SDS011;35317;51.978;6.296;2023-06-14T21:12:19;4.43;;;1.60;;
49440;SDS011;35317;51.978;6.296;2023-06-14T21:17:20;2.40;;;1.60;;
49440;SDS011;35317;51.978;6.296;2023-06-14T21:22:21;5.60;;;1.55;;
49440;SDS011;35317;51.978;6.296;2023-06-14T21:27:21;2.47;;;1.30;;
49440;SDS011;35317;51.978;6.296;2023-06-14T21:32:22;5.60;;;1.90;;
49440;SDS011;35317;51.978;6.296;2023-06-14T21:37:23;4.15;;;2.08;;
49440;SDS011;35317;51.978;6.296;2023-06-14T21:42:24;3.38;;;1.75;;
49440;SDS011;35317;51.978;6.296;2023-06-14T21:47:25;2.72;;;1.70;;
49440;SDS011;35317;51.978;6.296;2023-06-14T21:52:26;1.95;;;1.50;;
49440;SDS011;35317;51.978;6.296;2023-06-14T21:57:26;2.33;;;1.70;;
49440;SDS011;35317;51.978;6.296;2023-06-14T22:02:27;4.13;;;1.90;;
49440;SDS011;35317;51.978;6.296;2023-06-14T22:07:28;2.10;;;1.80;;
49440;SDS011;35317;51.978;6.296;2023-06-14T22:12:31;4.88;;;1.98;;
49440;SDS011;35317;51.978;6.296;2023-06-14T22:17:31;4.53;;;1.90;;
49440;SDS011;35317;51.978;6.296;2023-06-14T22:22:33;2.75;;;1.70;;
49440;SDS011;35317;51.978;6.296;2023-06-14T22:27:37;2.00;;;1.55;;
49440;SDS011;35317;51.978;6.296;2023-06-14T22:32:45;4.25;;;1.70;;
49440;SDS011;35317;51.978;6.296;2023-06-14T22:42:49;3.22;;;2.08;;
49440;SDS011;35317;51.978;6.296;2023-06-14T22:47:53;1.97;;;1.77;;
49440;SDS011;35317;51.978;6.296;2023-06-14T22:52:54;3.17;;;2.38;;
49440;SDS011;35317;51.978;6.296;2023-06-14T22:57:54;3.33;;;1.60;;
49440;SDS011;35317;51.978;6.296;2023-06-14T23:02:55;2.42;;;1.80;;
49440;SDS011;35317;51.978;6.296;2023-06-14T23:07:57;4.80;;;2.10;;
49440;SDS011;35317;51.978;6.296;2023-06-14T23:12:58;3.90;;;2.00;;
49440;SDS011;35317;51.978;6.296;2023-06-14T23:17:59;3.28;;;1.65;;
49440;SDS011;35317;51.978;6.296;2023-06-14T23:23:00;2.83;;;2.25;;
49440;SDS011;35317;51.978;6.296;2023-06-14T23:28:06;2.87;;;1.67;;
49440;SDS011;35317;51.978;6.296;2023-06-14T23:33:08;2.38;;;1.80;;
49440;SDS011;35317;51.978;6.296;2023-06-14T23:38:09;5.43;;;2.00;;
49440;SDS011;35317;51.978;6.296;2023-06-14T23:43:12;4.07;;;1.80;;
49440;SDS011;35317;51.978;6.296;2023-06-14T23:48:14;2.85;;;2.13;;
49440;SDS011;35317;51.978;6.296;2023-06-14T23:53:15;3.53;;;1.90;;
49440;SDS011;35317;51.978;6.296;2023-06-14T23:58:16;3.35;;;2.20;;
